Time;durP1;ratioP1;P1;durP2;ratioP2;P2;SDS_P1;SDS_P2;PMS_P1;PMS_P2;Temp;Humidity;BMP_temperature;BMP_pressure;BME280_temperature;BME280_humidity;BME280_pressure;Samples;Min_cycle;Max_cycle;Signal;HPM_P1;HPM_P2
2022/08/24 00:01:54;;;;;;;4.20;2.97;;;19.40;99.90;;;;;;5109888;28;20305;-52
2022/08/24 00:04:22;;;;;;;4.35;2.67;;;19.30;99.90;;;;;;5109094;28;20216;-52
2022/08/24 00:06:52;;;;;;;3.38;2.70;;;19.30;99.90;;;;;;5109560;28;20213;-52
2022/08/24 00:09:20;;;;;;;3.92;2.55;;;19.30;99.90;;;;;;5095165;28;20260;-52
2022/08/24 00:11:48;;;;;;;2.88;2.58;;;19.30;99.90;;;;;;5109861;28;20208;-52
2022/08/24 00:14:17;;;;;;;6.38;3.13;;;19.20;99.90;;;;;;5109530;28;20756;-52
2022/08/24 00:16:45;;;;;;;5.90;2.85;;;19.20;99.90;;;;;;5109767;28;20254;-52
2022/08/24 00:19:14;;;;;;;5.60;2.70;;;19.10;99.90;;;;;;5109286;28;20809;-52
2022/08/24 00:21:42;;;;;;;3.95;2.92;;;19.10;99.90;;;;;;5109681;28;20265;-51
2022/08/24 00:24:11;;;;;;;5.68;3.33;;;19.10;99.90;;;;;;5109530;28;20276;-52
2022/08/24 00:26:39;;;;;;;3.53;3.10;;;19.00;99.90;;;;;;5109733;28;20208;-52
2022/08/24 00:29:07;;;;;;;4.57;2.90;;;19.00;99.90;;;;;;5099315;28;20211;-52
2022/08/24 00:31:35;;;;;;;4.20;2.95;;;19.10;99.90;;;;;;5113471;28;20203;-52
2022/08/24 00:34:04;;;;;;;4.28;3.13;;;19.00;99.90;;;;;;5113059;28;20784;-53
2022/08/24 00:36:32;;;;;;;4.43;3.10;;;19.00;99.90;;;;;;5113696;28;20320;-52
2022/08/24 00:39:00;;;;;;;4.35;3.22;;;19.00;99.90;;;;;;5113279;28;20704;-52
2022/08/24 00:41:30;;;;;;;3.20;2.90;;;19.00;99.90;;;;;;5112791;28;20211;-52
2022/08/24 00:44:00;;;;;;;5.40;3.70;;;19.00;99.90;;;;;;5113573;28;20227;-52
2022/08/24 00:46:42;;;;;;;4.30;3.00;;;18.90;99.90;;;;;;5113575;28;20919;-52
2022/08/24 00:49:18;;;;;;;4.47;3.10;;;18.90;99.90;;;;;;5112966;28;20213;-52
2022/08/24 00:51:54;;;;;;;5.93;3.33;;;18.80;99.90;;;;;;5113325;28;20203;-52
2022/08/24 00:54:25;;;;;;;4.03;3.45;;;18.80;99.90;;;;;;5113088;28;20227;-52
2022/08/24 00:56:59;;;;;;;4.00;3.40;;;18.70;99.90;;;;;;5113046;28;20211;-52
2022/08/24 00:59:30;;;;;;;6.13;3.47;;;18.70;99.90;;;;;;5113474;28;20267;-52
2022/08/24 01:02:05;;;;;;;4.25;3.40;;;18.70;99.90;;;;;;5113682;28;20207;-52
2022/08/24 01:04:47;;;;;;;3.90;3.08;;;18.60;99.90;;;;;;5112920;28;20207;-52
2022/08/24 01:07:16;;;;;;;5.20;3.35;;;18.60;99.90;;;;;;5113270;28;20200;-52
2022/08/24 01:09:44;;;;;;;5.72;3.05;;;18.60;99.90;;;;;;5113129;28;20208;-51
2022/08/24 01:12:14;;;;;;;3.80;3.50;;;18.60;99.90;;;;;;5112775;28;20203;-52
2022/08/24 01:14:42;;;;;;;4.35;3.30;;;18.50;99.90;;;;;;5112640;28;20207;-52
2022/08/24 01:20:02;;;;;;;5.55;3.55;;;18.50;99.90;;;;;;5112584;28;20231;-52
2022/08/24 01:22:46;;;;;;;4.35;3.13;;;18.40;99.90;;;;;;5112753;28;20292;-52
2022/08/24 01:25:16;;;;;;;5.10;3.03;;;18.40;99.90;;;;;;5112349;28;20329;-52
2022/08/24 01:27:45;;;;;;;3.58;3.28;;;18.40;99.90;;;;;;5108874;28;20208;-52
2022/08/24 01:30:15;;;;;;;3.47;3.15;;;18.30;99.90;;;;;;5096990;28;20287;-52
2022/08/24 01:32:53;;;;;;;4.82;3.30;;;18.30;99.90;;;;;;5102180;28;20259;-52
2022/08/24 01:35:22;;;;;;;4.57;3.20;;;18.30;99.90;;;;;;5112091;28;20203;-52
2022/08/24 01:37:51;;;;;;;5.47;3.70;;;18.30;99.90;;;;;;5112530;28;20207;-52
2022/08/24 01:40:24;;;;;;;5.55;3.20;;;18.30;99.90;;;;;;5111368;28;20199;-52
2022/08/24 01:42:53;;;;;;;3.53;3.20;;;18.30;99.90;;;;;;5112885;28;20231;-52
2022/08/24 01:45:21;;;;;;;4.57;3.10;;;18.20;99.90;;;;;;5112131;28;20195;-52
2022/08/24 01:47:49;;;;;;;5.75;3.67;;;18.20;99.90;;;;;;5112213;28;20836;-52
2022/08/24 01:50:17;;;;;;;3.80;3.50;;;18.10;99.90;;;;;;5112030;28;20885;-52
2022/08/24 01:52:45;;;;;;;5.40;3.50;;;18.10;99.90;;;;;;5112161;28;20272;-51
2022/08/24 01:55:35;;;;;;;5.28;3.47;;;18.10;99.90;;;;;;5111298;28;20291;-52
2022/08/24 01:58:04;;;;;;;4.65;3.03;;;18.00;99.90;;;;;;5111102;28;20204;-52
2022/08/24 02:00:35;;;;;;;4.10;3.03;;;18.00;99.90;;;;;;5111640;28;20269;-52
2022/08/24 02:03:03;;;;;;;7.88;3.50;;;17.90;99.90;;;;;;5111254;28;20254;-52
2022/08/24 02:05:32;;;;;;;3.92;3.35;;;17.90;99.90;;;;;;5111802;28;20624;-52
2022/08/24 02:08:00;;;;;;;5.38;3.33;;;17.90;99.90;;;;;;5111915;28;20219;-52
2022/08/24 02:10:29;;;;;;;4.97;3.65;;;17.90;99.90;;;;;;5111427;28;20207;-52
2022/08/24 02:12:59;;;;;;;4.60;3.00;;;17.80;99.90;;;;;;5111522;28;20776;-51
2022/08/24 02:15:30;;;;;;;4.10;3.55;;;17.80;99.90;;;;;;5111921;28;20207;-52
2022/08/24 02:17:58;;;;;;;5.80;3.88;;;17.70;99.90;;;;;;5111798;28;20622;-52
2022/08/24 02:20:28;;;;;;;5.32;3.30;;;17.70;99.90;;;;;;5111517;28;20231;-52
2022/08/24 02:22:56;;;;;;;6.35;3.35;;;17.70;99.90;;;;;;5111787;28;20227;-52
2022/08/24 02:25:28;;;;;;;4.90;3.30;;;17.70;99.90;;;;;;5111119;28;20212;-52
2022/08/24 02:27:58;;;;;;;4.35;3.10;;;17.70;99.90;;;;;;5107434;28;20245;-52
2022/08/24 02:30:28;;;;;;;4.22;3.20;;;17.60;99.90;;;;;;5103969;28;20208;-51
2022/08/24 02:32:56;;;;;;;5.35;3.80;;;17.60;99.90;;;;;;5105582;28;20220;-52
2022/08/24 02:35:25;;;;;;;4.18;3.13;;;17.60;99.90;;;;;;5111262;28;20244;-52
2022/08/24 02:37:53;;;;;;;5.63;3.70;;;17.60;99.90;;;;;;5111567;28;20277;-52
2022/08/24 02:40:21;;;;;;;4.53;3.50;;;17.50;99.90;;;;;;5109085;28;20299;-51
2022/08/24 02:42:50;;;;;;;5.68;3.70;;;17.50;99.90;;;;;;5111322;28;20224;-52
2022/08/24 02:45:20;;;;;;;6.63;3.53;;;17.50;99.90;;;;;;5115023;27;20208;-51
2022/08/24 02:47:48;;;;;;;3.70;3.30;;;17.50;99.90;;;;;;5112596;27;20672;-51
2022/08/24 02:50:17;;;;;;;5.80;3.60;;;17.50;99.90;;;;;;5116783;27;20195;-51
2022/08/24 02:52:46;;;;;;;3.63;3.33;;;17.40;99.90;;;;;;5130788;27;20227;-52
2022/08/24 02:55:17;;;;;;;4.22;3.47;;;17.40;99.90;;;;;;5131807;27;20203;-52
2022/08/24 02:57:47;;;;;;;4.78;3.70;;;17.40;99.90;;;;;;5125218;27;20199;-52
2022/08/24 03:00:20;;;;;;;3.60;3.30;;;17.40;99.90;;;;;;5124452;27;20218;-51
2022/08/24 03:02:49;;;;;;;3.40;3.05;;;17.40;99.90;;;;;;5124932;27;20732;-52
2022/08/24 03:05:18;;;;;;;3.60;3.00;;;17.40;99.90;;;;;;5111364;28;20256;-52
2022/08/24 03:07:46;;;;;;;5.30;3.33;;;17.30;99.90;;;;;;5112622;27;20272;-51
2022/08/24 03:10:14;;;;;;;3.35;3.05;;;17.30;99.90;;;;;;5110670;28;20207;-52
2022/08/24 03:12:43;;;;;;;4.07;2.95;;;17.30;99.90;;;;;;5113089;27;20292;-52
2022/08/24 03:15:12;;;;;;;3.80;3.40;;;17.30;99.90;;;;;;5131112;27;20203;-52
2022/08/24 03:17:40;;;;;;;5.90;3.92;;;17.30;99.90;;;;;;5131130;27;20215;-51
2022/08/24 03:20:15;;;;;;;6.30;3.90;;;17.20;99.90;;;;;;5122989;27;20238;-52
2022/08/24 03:22:45;;;;;;;6.88;3.92;;;17.20;99.90;;;;;;5125303;27;20226;-52
2022/08/24 03:25:14;;;;;;;4.68;3.58;;;17.20;99.90;;;;;;5130879;27;20199;-52
2022/08/24 03:27:42;;;;;;;3.60;3.30;;;17.10;99.90;;;;;;5127000;27;20234;-52
2022/08/24 03:30:13;;;;;;;5.28;3.45;;;17.10;99.90;;;;;;5130263;27;20198;-52
2022/08/24 03:32:41;;;;;;;3.95;3.25;;;17.10;99.90;;;;;;5121437;27;20257;-52
2022/08/24 03:35:12;;;;;;;3.95;3.30;;;17.10;99.90;;;;;;5129328;27;20267;-52
2022/08/24 03:37:41;;;;;;;3.83;3.28;;;17.10;99.90;;;;;;5119647;27;20204;-52
2022/08/24 03:40:11;;;;;;;5.47;3.40;;;17.10;99.90;;;;;;5126911;27;20218;-52
2022/08/24 03:42:51;;;;;;;5.28;3.72;;;17.00;99.90;;;;;;5130419;27;20222;-52
2022/08/24 03:45:20;;;;;;;4.13;3.72;;;17.00;99.90;;;;;;5129688;27;20206;-52
2022/08/24 03:47:49;;;;;;;5.90;3.42;;;17.00;99.90;;;;;;5130151;27;20255;-52
2022/08/24 03:50:19;;;;;;;4.93;3.78;;;17.00;99.90;;;;;;5130299;27;20202;-52
2022/08/24 03:52:47;;;;;;;5.60;3.58;;;17.00;99.90;;;;;;5130373;27;20230;-51
2022/08/24 03:55:15;;;;;;;4.82;3.88;;;16.90;99.90;;;;;;5130418;27;20246;-52
2022/08/24 03:57:43;;;;;;;5.13;3.72;;;16.90;99.90;;;;;;5130409;27;20232;-52
2022/08/24 04:00:13;;;;;;;3.90;3.60;;;16.90;99.90;;;;;;5129780;27;20214;-53
2022/08/24 04:02:43;;;;;;;7.18;4.63;;;16.80;99.90;;;;;;5129961;27;20230;-52
2022/08/24 04:05:12;;;;;;;4.47;3.78;;;16.80;99.90;;;;;;5129476;27;20211;-52
2022/08/24 04:07:41;;;;;;;5.45;3.75;;;16.80;99.90;;;;;;5123611;27;20211;-53
2022/08/24 04:10:12;;;;;;;6.22;3.58;;;16.80;99.90;;;;;;5129836;27;20203;-52
2022/08/24 04:12:40;;;;;;;5.57;4.20;;;16.70;99.90;;;;;;5115375;27;20219;-51
2022/08/24 04:15:09;;;;;;;5.25;4.72;;;16.70;99.90;;;;;;5130202;27;20198;-51
2022/08/24 04:17:37;;;;;;;5.05;3.63;;;16.70;99.90;;;;;;5130045;28;20215;-53
2022/08/24 04:20:07;;;;;;;6.07;3.42;;;16.70;99.90;;;;;;5130296;28;20222;-51
2022/08/24 04:22:36;;;;;;;4.30;3.50;;;16.70;99.90;;;;;;5129672;28;20223;-52
2022/08/24 04:25:06;;;;;;;7.78;5.25;;;16.70;99.90;;;;;;5130032;28;20226;-52
2022/08/24 04:27:36;;;;;;;8.75;4.90;;;16.60;99.90;;;;;;5116487;28;20639;-52
2022/08/24 04:30:05;;;;;;;6.07;3.95;;;16.60;99.90;;;;;;5130118;28;20244;-52
2022/08/24 04:32:34;;;;;;;3.85;3.42;;;16.60;99.90;;;;;;5121522;28;20720;-53
2022/08/24 04:35:02;;;;;;;4.03;3.63;;;16.60;99.90;;;;;;5101674;28;20667;-52
2022/08/24 04:37:31;;;;;;;5.47;3.38;;;16.60;99.90;;;;;;5129661;28;20268;-53
2022/08/24 04:39:59;;;;;;;4.57;3.72;;;16.70;99.90;;;;;;5129884;28;20570;-53
2022/08/24 04:42:31;;;;;;;5.55;3.47;;;16.70;99.90;;;;;;5129762;28;20297;-52
2022/08/24 04:45:00;;;;;;;6.00;3.83;;;16.70;99.90;;;;;;5117115;28;20230;-52
2022/08/24 04:47:28;;;;;;;4.13;3.72;;;16.70;99.90;;;;;;5129646;28;20623;-52
2022/08/24 04:49:56;;;;;;;4.63;3.72;;;16.80;99.90;;;;;;5128939;28;20874;-53
2022/08/24 04:52:24;;;;;;;4.22;3.83;;;16.80;99.90;;;;;;5129949;28;20622;-52
2022/08/24 04:54:52;;;;;;;4.15;3.72;;;16.80;99.90;;;;;;5129587;28;20252;-52
2022/08/24 04:57:20;;;;;;;3.83;3.53;;;16.80;99.90;;;;;;5128130;28;20664;-52
2022/08/24 04:59:49;;;;;;;4.30;3.50;;;16.80;99.90;;;;;;5129089;28;20207;-52
2022/08/24 05:02:19;;;;;;;4.10;3.70;;;17.30;99.90;;;;;;5115755;28;20271;-52
2022/08/24 05:04:48;;;;;;;6.65;3.53;;;17.80;99.90;;;;;;5129537;28;20260;-52
2022/08/24 05:07:17;;;;;;;5.45;4.03;;;18.30;99.90;;;;;;5126151;28;20244;-52
2022/08/24 05:09:46;;;;;;;5.25;3.72;;;18.60;99.90;;;;;;5129595;28;20244;-52
2022/08/24 05:12:14;;;;;;;4.53;3.63;;;19.00;99.90;;;;;;5114936;28;20664;-52
2022/08/24 05:14:42;;;;;;;4.97;3.22;;;19.40;99.90;;;;;;5130797;27;20210;-52
2022/08/24 05:17:11;;;;;;;4.82;3.15;;;19.60;99.90;;;;;;5133921;27;20203;-52
2022/08/24 05:19:39;;;;;;;4.45;3.35;;;19.90;99.90;;;;;;5132092;27;20274;-52
2022/08/24 05:22:07;;;;;;;5.13;3.30;;;19.80;99.90;;;;;;5133316;27;20290;-52
2022/08/24 05:24:35;;;;;;;5.40;3.00;;;19.50;99.90;;;;;;5132949;27;20226;-52
2022/08/24 05:27:04;;;;;;;5.20;3.35;;;19.20;99.90;;;;;;5123935;27;20208;-51
2022/08/24 05:29:33;;;;;;;3.85;2.90;;;19.00;99.90;;;;;;5129026;27;20287;-52
2022/08/24 05:32:01;;;;;;;4.10;3.22;;;18.80;99.90;;;;;;5130102;27;20212;-53
2022/08/24 05:34:32;;;;;;;6.80;3.42;;;18.90;99.90;;;;;;5128415;27;20299;-51
2022/08/24 05:37:00;;;;;;;4.35;3.40;;;19.30;99.90;;;;;;5133031;27;20203;-51
2022/08/24 05:39:30;;;;;;;4.05;3.65;;;19.30;99.90;;;;;;5132720;27;20256;-52
2022/08/24 05:41:59;;;;;;;6.35;3.22;;;19.20;99.90;;;;;;5133031;27;20260;-52
2022/08/24 05:44:29;;;;;;;4.68;3.35;;;19.10;99.90;;;;;;5120832;27;20647;-52
2022/08/24 05:47:00;;;;;;;5.03;3.47;;;19.00;99.90;;;;;;5098686;27;20203;-51
2022/08/24 05:49:28;;;;;;;4.30;3.20;;;19.00;99.90;;;;;;5103121;27;20258;-51
2022/08/24 05:51:58;;;;;;;6.10;3.40;;;19.00;99.90;;;;;;5124283;27;20255;-52
2022/08/24 05:54:26;;;;;;;4.50;3.45;;;19.10;99.90;;;;;;5123634;27;20234;-52
2022/08/24 05:56:56;;;;;;;3.45;3.17;;;19.10;99.90;;;;;;5132737;27;20232;-52
2022/08/24 05:59:24;;;;;;;4.80;3.72;;;19.10;99.90;;;;;;5132522;27;20203;-52
2022/08/24 06:01:52;;;;;;;5.15;3.55;;;19.20;99.90;;;;;;5132269;27;20279;-51
2022/08/24 06:04:20;;;;;;;3.47;3.17;;;19.30;99.90;;;;;;5132006;27;20234;-52
2022/08/24 06:06:51;;;;;;;4.65;3.58;;;19.40;99.90;;;;;;5120251;27;20202;-52
2022/08/24 06:09:21;;;;;;;4.18;3.40;;;19.60;99.90;;;;;;5132100;27;20215;-53
2022/08/24 06:11:49;;;;;;;3.95;3.25;;;19.70;99.90;;;;;;5121223;27;20229;-52
2022/08/24 06:14:18;;;;;;;5.18;3.58;;;19.90;99.90;;;;;;5129402;27;20219;-52
2022/08/24 06:16:52;;;;;;;4.43;3.53;;;19.90;99.90;;;;;;5131854;27;20234;-51
2022/08/24 06:19:20;;;;;;;6.20;3.60;;;19.90;99.90;;;;;;5131765;27;20236;-52
2022/08/24 06:21:51;;;;;;;5.13;3.70;;;20.10;99.90;;;;;;5132394;27;20222;-52
2022/08/24 06:27:19;;;;;;;4.00;3.30;;;20.80;99.90;;;;;;5129535;27;20698;-52
2022/08/24 06:27:22;;;;;;;4.70;3.40;;;21.50;99.90;;;;;;5112483;27;20211;-52
2022/08/24 06:29:52;;;;;;;5.97;3.60;;;22.30;99.90;;;;;;5131127;27;20198;-52
2022/08/24 06:32:21;;;;;;;4.90;3.20;;;22.90;99.90;;;;;;5125658;27;20204;-53
2022/08/24 06:34:49;;;;;;;5.95;3.17;;;23.40;99.90;;;;;;5128816;27;20267;-52
2022/08/24 06:37:18;;;;;;;4.47;3.20;;;23.70;99.90;;;;;;5131686;27;20207;-53
2022/08/24 06:39:48;;;;;;;4.25;3.50;;;23.90;99.90;;;;;;5130729;27;20302;-53
2022/08/24 06:42:24;;;;;;;5.05;3.08;;;24.20;99.90;;;;;;5131095;27;20246;-53
2022/08/24 06:44:52;;;;;;;5.55;3.28;;;24.50;99.90;;;;;;5119705;27;20206;-53
2022/08/24 06:47:21;;;;;;;5.68;3.00;;;24.80;99.90;;;;;;5131718;27;20202;-53
2022/08/24 06:49:49;;;;;;;3.17;2.90;;;24.90;99.90;;;;;;5131106;27;20215;-52
2022/08/24 06:52:17;;;;;;;4.15;2.55;;;25.10;99.90;;;;;;5130979;27;20200;-52
2022/08/24 06:54:45;;;;;;;5.65;3.17;;;25.30;99.90;;;;;;5122616;27;20256;-53
2022/08/24 06:57:14;;;;;;;5.57;3.10;;;25.50;99.90;;;;;;5131758;27;20211;-53
2022/08/24 06:59:43;;;;;;;5.07;2.90;;;25.70;99.90;;;;;;5131317;27;20240;-52
2022/08/24 07:02:14;;;;;;;4.13;2.88;;;25.90;99.90;;;;;;5131475;27;20648;-52
2022/08/24 07:04:42;;;;;;;4.03;2.58;;;26.10;99.90;;;;;;5130602;27;20221;-53
2022/08/24 07:07:10;;;;;;;3.80;2.70;;;26.20;99.90;;;;;;5128011;27;20720;-52
2022/08/24 07:09:39;;;;;;;4.32;2.60;;;26.30;99.90;;;;;;5130966;27;20215;-52
2022/08/24 07:12:07;;;;;;;4.43;2.90;;;26.40;99.90;;;;;;5117866;27;20265;-53
2022/08/24 07:14:37;;;;;;;6.00;2.92;;;26.50;99.90;;;;;;5131519;27;20296;-53
2022/08/24 07:17:05;;;;;;;3.65;2.60;;;26.70;99.90;;;;;;5130948;27;20202;-53
2022/08/24 07:19:33;;;;;;;5.97;2.70;;;26.80;99.90;;;;;;5131091;27;20280;-52
2022/08/24 07:22:01;;;;;;;5.25;2.83;;;27.10;99.90;;;;;;5131290;27;20234;-52
2022/08/24 07:24:29;;;;;;;6.40;2.83;;;27.20;99.90;;;;;;5130656;27;20219;-53
2022/08/24 07:26:57;;;;;;;4.35;2.60;;;27.30;99.90;;;;;;5122541;27;20668;-53
2022/08/24 07:29:25;;;;;;;3.72;2.55;;;27.40;99.90;;;;;;5126638;27;20199;-53
2022/08/24 07:32:14;;;;;;;2.53;2.33;;;27.40;99.90;;;;;;5125334;27;20203;-52
2022/08/24 07:34:43;;;;;;;5.00;3.03;;;27.40;99.90;;;;;;5128416;27;20656;-53
2022/08/24 07:37:11;;;;;;;5.00;2.45;;;27.50;99.90;;;;;;5130448;27;20203;-53
2022/08/24 07:39:39;;;;;;;4.57;2.45;;;27.60;99.90;;;;;;5130309;27;20668;-53
2022/08/24 07:42:08;;;;;;;5.10;2.83;;;27.80;99.90;;;;;;5130954;27;20222;-52
2022/08/24 07:44:42;;;;;;;3.47;2.67;;;27.80;99.90;;;;;;5118587;27;20203;-52
2022/08/24 07:47:10;;;;;;;4.00;2.55;;;28.00;99.90;;;;;;5131133;27;20203;-53
2022/08/24 07:49:59;;;;;;;3.33;2.78;;;28.00;99.90;;;;;;5130075;27;20290;-52
2022/08/24 07:52:27;;;;;;;5.32;2.80;;;27.90;99.90;;;;;;5131102;27;20251;-53
2022/08/24 07:54:56;;;;;;;4.88;2.60;;;28.00;99.90;;;;;;5130200;27;20275;-53
2022/08/24 07:57:24;;;;;;;4.95;2.33;;;28.10;99.90;;;;;;5130853;27;20207;-53
2022/08/24 07:59:55;;;;;;;4.93;2.50;;;28.20;99.30;;;;;;5112705;27;20300;-52
2022/08/24 08:02:23;;;;;;;9.00;2.85;;;28.30;99.50;;;;;;5111074;27;20457;-52
2022/08/24 08:05:00;;;;;;;4.93;2.80;;;28.20;98.70;;;;;;5129981;27;20210;-52
2022/08/24 08:07:29;;;;;;;5.55;2.75;;;28.10;99.30;;;;;;5118852;27;20276;-51
2022/08/24 08:09:57;;;;;;;4.53;2.45;;;27.80;98.40;;;;;;5110186;27;20207;-52
2022/08/24 08:12:25;;;;;;;5.63;2.55;;;27.60;98.40;;;;;;5115619;27;20208;-52
2022/08/24 08:14:53;;;;;;;4.82;2.63;;;27.60;98.20;;;;;;5130818;27;20260;-52
2022/08/24 08:17:21;;;;;;;5.05;2.40;;;27.60;98.10;;;;;;5130323;27;20274;-52
2022/08/24 08:19:50;;;;;;;2.72;2.35;;;27.60;98.60;;;;;;5130081;28;20206;-53
2022/08/24 08:25:06;;;;;;;3.58;2.10;;;27.60;97.90;;;;;;5130493;28;20206;-53
2022/08/24 08:27:34;;;;;;;4.78;2.13;;;27.70;97.80;;;;;;5116758;28;20613;-52
2022/08/24 08:30:03;;;;;;;5.18;2.20;;;27.80;96.90;;;;;;5129721;28;20199;-52
2022/08/24 08:32:31;;;;;;;3.65;2.20;;;27.80;96.70;;;;;;5122500;28;20253;-52
2022/08/24 08:34:59;;;;;;;4.53;2.30;;;27.80;97.30;;;;;;5129303;28;20199;-52
2022/08/24 08:37:30;;;;;;;3.78;2.17;;;27.90;95.50;;;;;;5130614;28;20207;-52
2022/08/24 08:39:59;;;;;;;4.13;2.15;;;27.90;95.90;;;;;;5130103;28;20209;-52
2022/08/24 08:42:46;;;;;;;2.65;2.00;;;27.90;94.50;;;;;;5130377;28;20222;-53
2022/08/24 08:45:26;;;;;;;2.70;1.92;;;27.90;94.60;;;;;;5113308;28;20207;-52
2022/08/24 08:48:33;;;;;;;2.53;2.15;;;28.00;93.90;;;;;;5130145;28;20751;-53
2022/08/24 08:51:28;;;;;;;3.17;2.00;;;28.10;94.40;;;;;;5116376;27;20255;-52
2022/08/24 08:54:13;;;;;;;3.00;1.88;;;28.10;93.00;;;;;;5134620;27;20292;-52
2022/08/24 08:56:52;;;;;;;3.85;1.83;;;28.10;92.70;;;;;;5134057;27;20210;-52
2022/08/24 08:59:44;;;;;;;3.80;2.10;;;28.20;93.10;;;;;;5133693;27;20203;-52
2022/08/24 09:02:24;;;;;;;5.47;2.15;;;28.20;92.80;;;;;;5133666;27;20706;-53
2022/08/24 09:05:27;;;;;;;2.80;2.08;;;28.30;93.40;;;;;;5133996;27;20898;-52
2022/08/24 09:08:05;;;;;;;4.10;2.20;;;28.30;93.10;;;;;;5117241;27;20221;-53
2022/08/24 09:10:55;;;;;;;2.22;1.88;;;28.30;92.40;;;;;;5131160;27;20724;-52
2022/08/24 09:13:37;;;;;;;3.22;2.50;;;28.30;92.50;;;;;;5123081;27;20222;-52
2022/08/24 09:16:31;;;;;;;3.50;2.10;;;28.40;93.60;;;;;;5132823;27;20206;-53
2022/08/24 09:19:22;;;;;;;2.67;1.95;;;28.40;93.70;;;;;;5133459;27;20198;-52
2022/08/24 09:22:09;;;;;;;4.10;2.13;;;28.40;94.00;;;;;;5114481;27;20574;-53
2022/08/24 09:25:10;;;;;;;3.03;2.13;;;28.40;93.20;;;;;;5132747;27;20276;-52
2022/08/24 09:27:52;;;;;;;2.78;2.38;;;28.40;92.40;;;;;;5120082;27;20207;-52
2022/08/24 09:30:24;;;;;;;2.80;2.13;;;28.40;92.30;;;;;;5133543;27;20247;-52
2022/08/24 09:33:04;;;;;;;3.03;2.00;;;28.50;92.50;;;;;;5124672;27;20216;-53
2022/08/24 09:35:50;;;;;;;5.13;2.30;;;28.60;92.00;;;;;;5132669;27;20206;-53
2022/08/24 09:38:23;;;;;;;3.50;2.00;;;28.60;93.20;;;;;;5133519;27;20199;-52
2022/08/24 09:41:10;;;;;;;5.10;2.35;;;28.70;93.00;;;;;;5118523;27;20285;-52
2022/08/24 09:44:29;;;;;;;4.53;2.13;;;28.70;92.20;;;;;;5100290;27;20235;-53
2022/08/24 09:47:14;;;;;;;2.50;1.98;;;28.60;93.50;;;;;;5094021;28;20203;-53
2022/08/24 09:50:09;;;;;;;4.35;2.28;;;28.70;92.10;;;;;;5111126;28;20215;-53
2022/08/24 09:53:06;;;;;;;6.68;2.25;;;28.70;93.30;;;;;;5103386;28;20254;-52
2022/08/24 09:56:10;;;;;;;2.42;2.22;;;28.70;91.70;;;;;;5109283;28;20215;-53
2022/08/24 09:58:53;;;;;;;5.32;2.47;;;28.70;92.00;;;;;;5111827;28;20229;-52
2022/08/24 10:01:31;;;;;;;3.45;2.47;;;28.80;93.50;;;;;;5111745;28;20637;-53
2022/08/24 10:04:30;;;;;;;4.00;1.85;;;29.00;92.30;;;;;;5111063;28;20273;-52
2022/08/24 10:07:09;;;;;;;2.85;2.33;;;29.10;91.90;;;;;;5112017;28;20207;-53
2022/08/24 10:09:55;;;;;;;2.97;2.10;;;29.20;90.60;;;;;;5111395;28;20268;-53
2022/08/24 10:12:35;;;;;;;3.28;2.17;;;29.20;90.80;;;;;;5102337;27;20204;-52
2022/08/24 10:15:07;;;;;;;4.30;2.00;;;29.20;91.20;;;;;;5131661;27;20198;-53
2022/08/24 10:17:46;;;;;;;4.35;2.10;;;29.30;91.30;;;;;;5132135;27;20207;-52
2022/08/24 10:20:23;;;;;;;5.75;2.33;;;29.30;90.10;;;;;;5131861;27;20199;-52
2022/08/24 10:23:18;;;;;;;5.85;2.45;;;29.30;88.40;;;;;;5127319;27;20294;-52
2022/08/24 10:25:53;;;;;;;2.42;2.05;;;29.40;89.10;;;;;;5131473;27;20620;-52
2022/08/24 10:28:55;;;;;;;8.23;2.20;;;29.30;87.40;;;;;;5131330;27;20617;-52
2022/08/24 10:31:27;;;;;;;5.93;2.17;;;29.30;90.10;;;;;;5097169;27;20247;-52
2022/08/24 10:34:06;;;;;;;3.63;2.42;;;29.30;89.50;;;;;;5123493;27;20222;-53
2022/08/24 10:37:20;;;;;;;4.68;2.42;;;29.30;88.30;;;;;;5130945;27;20206;-53
2022/08/24 10:40:11;;;;;;;6.00;2.38;;;29.30;89.50;;;;;;5131557;27;20199;-52
2022/08/24 10:46:31;;;;;;;5.43;2.22;;;29.60;88.60;;;;;;5114971;27;20229;-52
2022/08/24 10:49:40;;;;;;;3.38;2.35;;;29.60;84.90;;;;;;5130948;27;20247;-57
2022/08/24 10:52:38;;;;;;;2.47;2.10;;;29.50;86.70;;;;;;5105319;27;20671;-52
2022/08/24 10:55:21;;;;;;;2.55;2.17;;;29.60;86.70;;;;;;5125839;27;20244;-52
2022/08/24 10:58:20;;;;;;;3.75;2.50;;;29.60;83.80;;;;;;5130023;27;20255;-53
2022/08/24 11:00:48;;;;;;;3.50;2.33;;;29.60;85.50;;;;;;5130831;27;20207;-52
2022/08/24 11:03:21;;;;;;;6.20;2.40;;;29.70;85.80;;;;;;5130973;27;20356;-52
2022/08/24 11:05:57;;;;;;;7.10;2.40;;;29.70;82.90;;;;;;5131307;27;20206;-52
2022/08/24 11:08:27;;;;;;;3.63;2.25;;;29.80;84.00;;;;;;5127405;27;20218;-53
2022/08/24 11:11:08;;;;;;;4.82;2.50;;;29.70;83.80;;;;;;5105959;27;20204;-53
2022/08/24 11:13:49;;;;;;;4.13;2.40;;;29.80;82.80;;;;;;5112894;27;20223;-53
2022/08/24 11:16:25;;;;;;;3.72;2.60;;;29.80;83.80;;;;;;5130205;27;20198;-52
2022/08/24 11:18:55;;;;;;;4.15;2.33;;;29.80;85.10;;;;;;5130589;27;20203;-53
2022/08/24 11:21:49;;;;;;;2.63;2.42;;;29.90;85.30;;;;;;5123971;27;20945;-52
2022/08/24 11:24:42;;;;;;;3.13;2.33;;;30.00;83.60;;;;;;5125827;27;20226;-53
2022/08/24 11:27:25;;;;;;;4.50;2.60;;;30.00;83.30;;;;;;5130847;27;20263;-53
2022/08/24 11:30:05;;;;;;;4.95;2.78;;;30.00;83.10;;;;;;5130304;27;20234;-53
2022/08/24 11:32:39;;;;;;;6.32;2.63;;;30.00;83.90;;;;;;5122265;27;20260;-52
2022/08/24 11:35:15;;;;;;;3.90;2.70;;;30.10;82.50;;;;;;5116708;27;20722;-51
2022/08/24 11:37:45;;;;;;;5.20;2.70;;;30.10;81.90;;;;;;5095608;27;20208;-53
2022/08/24 11:40:16;;;;;;;4.25;2.65;;;30.10;82.00;;;;;;5104300;27;20195;-53
2022/08/24 11:43:15;;;;;;;4.07;2.42;;;30.10;81.20;;;;;;5129212;27;20255;-53
2022/08/24 11:45:51;;;;;;;4.05;2.53;;;30.10;81.00;;;;;;5109338;27;20930;-52
2022/08/24 11:48:34;;;;;;;3.25;2.50;;;30.20;81.30;;;;;;5130401;27;20203;-53
2022/08/24 11:51:12;;;;;;;2.90;2.30;;;30.30;82.80;;;;;;5130121;27;20570;-52
2022/08/24 11:53:56;;;;;;;7.07;2.97;;;30.40;80.20;;;;;;5130014;27;20222;-53
2022/08/24 11:56:31;;;;;;;4.20;2.60;;;30.30;79.80;;;;;;5129077;27;20201;-53
2022/08/24 11:59:05;;;;;;;6.13;2.88;;;30.30;80.50;;;;;;5114366;27;20616;-52
2022/08/24 12:01:43;;;;;;;4.15;2.70;;;30.30;81.90;;;;;;5130113;27;20205;-53
2022/08/24 12:04:30;;;;;;;5.82;2.80;;;30.40;80.30;;;;;;5129384;27;20238;-53
2022/08/24 12:07:06;;;;;;;6.55;2.63;;;30.50;78.70;;;;;;5126231;27;20633;-52
2022/08/24 12:09:51;;;;;;;3.28;2.70;;;30.40;78.40;;;;;;5129417;27;20236;-53
2022/08/24 12:12:27;;;;;;;4.18;2.60;;;30.40;80.90;;;;;;5114810;28;20672;-52
2022/08/24 12:15:00;;;;;;;4.47;2.72;;;30.40;79.20;;;;;;5129501;27;20214;-53
2022/08/24 12:17:34;;;;;;;5.20;2.58;;;30.40;78.40;;;;;;5129549;27;20207;-53
2022/08/24 12:20:08;;;;;;;4.43;2.40;;;30.50;78.80;;;;;;5129777;27;20202;-52
2022/08/24 12:22:38;;;;;;;5.68;2.80;;;30.60;77.10;;;;;;5129771;28;20272;-52
2022/08/24 12:26:00;;;;;;;4.93;2.78;;;30.70;77.10;;;;;;5134413;27;20267;-54
2022/08/24 12:27:59;;;;;;;4.13;2.58;;;30.70;77.90;;;;;;5135139;27;20198;-54
2022/08/24 12:30:27;;;;;;;3.22;2.60;;;30.60;76.10;;;;;;5136516;27;20267;-53
2022/08/24 12:32:58;;;;;;;5.78;2.53;;;30.70;75.90;;;;;;5120076;27;20264;-53
2022/08/24 12:35:30;;;;;;;4.03;2.67;;;30.60;76.70;;;;;;5116244;27;20199;-52
2022/08/24 12:38:03;;;;;;;4.55;2.67;;;30.60;75.40;;;;;;5122128;27;20211;-53
2022/08/24 12:40:38;;;;;;;5.28;2.30;;;30.40;74.90;;;;;;5135821;27;20203;-53
2022/08/24 12:43:10;;;;;;;4.72;2.42;;;30.50;75.10;;;;;;5135280;27;20234;-52
2022/08/24 12:45:39;;;;;;;4.65;2.10;;;30.50;75.30;;;;;;5124467;27;20812;-54
2022/08/24 12:48:12;;;;;;;4.00;2.50;;;30.50;75.50;;;;;;5136243;27;20211;-53
2022/08/24 12:50:53;;;;;;;4.18;2.38;;;30.30;75.50;;;;;;5136535;27;20286;-54
2022/08/24 12:53:49;;;;;;;3.30;2.50;;;30.00;74.90;;;;;;5135864;27;20602;-53
2022/08/24 12:56:55;;;;;;;3.13;2.67;;;30.00;75.90;;;;;;5136235;27;20236;-54
2022/08/24 12:59:26;;;;;;;4.28;2.38;;;30.00;75.80;;;;;;5116700;27;20202;-52
2022/08/24 13:02:01;;;;;;;3.58;2.50;;;29.90;72.90;;;;;;5136111;27;20199;-53
2022/08/24 13:04:42;;;;;;;4.20;2.65;;;29.80;73.10;;;;;;5135214;27;20290;-52
2022/08/24 13:07:26;;;;;;;4.28;2.40;;;29.70;75.20;;;;;;5128025;27;20280;-53
2022/08/24 13:10:08;;;;;;;3.40;2.35;;;29.70;74.90;;;;;;5136453;27;20267;-52
2022/08/24 13:13:18;;;;;;;3.30;2.33;;;29.60;75.00;;;;;;5116056;27;20219;-52
2022/08/24 13:15:57;;;;;;;4.18;2.10;;;29.60;74.80;;;;;;5135796;27;21039;-53
2022/08/24 13:19:07;;;;;;;2.75;2.30;;;29.70;76.60;;;;;;5136168;27;20290;-52
2022/08/24 13:21:49;;;;;;;9.90;2.78;;;29.80;76.70;;;;;;5125556;27;20268;-52
2022/08/24 13:24:49;;;;;;;5.28;2.20;;;29.90;74.50;;;;;;5136133;27;20604;-53
2022/08/24 13:28:11;;;;;;;5.90;2.53;;;30.00;73.90;;;;;;5135152;27;20199;-53
2022/08/24 13:31:14;;;;;;;3.20;2.15;;;30.00;75.00;;;;;;5120332;27;20199;-53
2022/08/24 13:33:45;;;;;;;4.53;2.60;;;30.00;74.90;;;;;;5127163;27;20313;-52
2022/08/24 13:36:46;;;;;;;4.82;2.15;;;30.00;75.30;;;;;;5130480;27;20244;-53